createdAt,value
2018-08-17T00:00:56.316Z,24.83
2018-08-17T00:03:25.401Z,28.73
2018-08-17T00:05:54.402Z,38.57
2018-08-17T00:08:23.272Z,44.37
2018-08-17T00:10:52.167Z,30.97
2018-08-17T00:13:23.164Z,38.13
2018-08-17T00:15:51.931Z,45.97
2018-08-17T00:18:21.137Z,33.87
2018-08-17T00:20:50.056Z,38.50
2018-08-17T00:23:19.119Z,39.10
2018-08-17T00:25:47.912Z,35.73
2018-08-17T00:28:16.836Z,44.03
2018-08-17T00:30:45.764Z,37.73
2018-08-17T00:33:14.841Z,35.27
2018-08-17T00:35:44.807Z,30.07
2018-08-17T00:38:13.757Z,26.00
2018-08-17T00:40:42.632Z,29.80
2018-08-17T00:43:11.630Z,29.80
2018-08-17T00:45:40.433Z,28.10
2018-08-17T00:48:09.539Z,26.07
2018-08-17T00:50:38.493Z,30.00
2018-08-17T00:53:07.569Z,25.43
2018-08-17T00:55:36.532Z,25.10
2018-08-17T00:58:05.486Z,26.47
2018-08-17T01:00:34.254Z,28.13
2018-08-17T01:03:03.099Z,26.50
2018-08-17T01:05:31.830Z,25.17
2018-08-17T01:08:00.625Z,33.70
2018-08-17T01:10:29.447Z,27.47
2018-08-17T01:12:58.351Z,24.23
2018-08-17T01:15:27.161Z,30.43
2018-08-17T01:17:56.028Z,33.47
2018-08-17T01:20:24.841Z,23.07
2018-08-17T01:22:53.743Z,23.70
2018-08-17T01:25:22.632Z,21.70
2018-08-17T01:27:51.428Z,27.67
2018-08-17T01:30:20.129Z,27.13
2018-08-17T01:32:48.876Z,23.97
2018-08-17T01:35:17.579Z,25.90
2018-08-17T01:37:46.372Z,20.27
2018-08-17T01:40:15.047Z,20.83
2018-08-17T01:42:43.841Z,30.37
2018-08-17T01:45:13.057Z,20.03
2018-08-17T01:47:41.878Z,20.77
2018-08-17T01:50:10.766Z,17.60
2018-08-17T01:52:39.586Z,21.47
2018-08-17T01:55:10.004Z,37.63
2018-08-17T01:57:38.707Z,30.43
2018-08-17T02:00:09.469Z,35.13
2018-08-17T02:02:39.690Z,31.17
2018-08-17T02:05:09.158Z,29.70
2018-08-17T02:07:37.997Z,34.90
2018-08-17T02:10:08.990Z,28.03
2018-08-17T02:12:38.282Z,29.80
2018-08-17T02:15:07.192Z,29.33
2018-08-17T02:17:36.018Z,37.37
2018-08-17T02:20:05.150Z,45.53
2018-08-17T02:22:33.862Z,36.53
2018-08-17T02:25:02.756Z,30.00
2018-08-17T02:27:31.554Z,34.17
2018-08-17T02:30:00.404Z,37.70
2018-08-17T02:32:29.048Z,38.63
2018-08-17T02:34:57.824Z,32.67
2018-08-17T02:37:26.551Z,34.50
2018-08-17T02:39:55.365Z,25.70
2018-08-17T02:42:24.184Z,29.10
2018-08-17T02:44:53.035Z,26.37
2018-08-17T02:47:21.835Z,31.33
2018-08-17T02:49:50.708Z,23.70
2018-08-17T02:52:20.340Z,24.63
2018-08-17T02:54:49.238Z,30.30
2018-08-17T02:57:18.146Z,23.10
2018-08-17T02:59:46.939Z,23.37
2018-08-17T03:02:15.750Z,24.53
2018-08-17T03:04:44.529Z,20.60
2018-08-17T03:07:13.286Z,22.33
2018-08-17T03:09:42.113Z,23.40
2018-08-17T03:12:10.882Z,23.30
2018-08-17T03:14:39.703Z,20.20
2018-08-17T03:17:08.471Z,18.50
2018-08-17T03:19:37.173Z,21.10
2018-08-17T03:22:05.978Z,26.83
2018-08-17T03:24:34.754Z,17.50
2018-08-17T03:27:03.527Z,17.93
2018-08-17T03:29:32.289Z,17.77
2018-08-17T03:32:01.088Z,21.83
2018-08-17T03:34:29.904Z,17.30
2018-08-17T03:36:58.794Z,18.23
2018-08-17T03:39:27.464Z,17.50
2018-08-17T03:41:56.294Z,27.20
2018-08-17T03:44:24.957Z,15.67
2018-08-17T03:46:53.798Z,17.23
2018-08-17T03:49:22.489Z,13.83
2018-08-17T03:51:51.275Z,17.03
2018-08-17T03:54:20.170Z,18.53
2018-08-17T03:56:49.033Z,15.73
2018-08-17T03:59:17.939Z,23.20
2018-08-17T04:01:46.799Z,19.70
2018-08-17T04:04:15.594Z,16.00
2018-08-17T04:06:44.379Z,18.43
2018-08-17T04:09:13.214Z,18.60
2018-08-17T04:11:42.034Z,11.23
2018-08-17T04:14:10.972Z,13.87
2018-08-17T04:16:39.828Z,12.70
2018-08-17T04:19:08.598Z,13.77
2018-08-17T04:21:37.507Z,10.90
2018-08-17T04:24:06.333Z,11.73
2018-08-17T04:26:35.170Z,9.87
2018-08-17T04:29:03.906Z,11.60
2018-08-17T04:31:32.734Z,11.40
2018-08-17T04:34:01.419Z,12.43
2018-08-17T04:36:30.251Z,10.17
2018-08-17T04:38:59.021Z,15.50
2018-08-17T04:41:27.876Z,17.23
2018-08-17T04:43:56.579Z,12.23
2018-08-17T04:46:25.378Z,16.90
2018-08-17T04:48:54.154Z,13.10
2018-08-17T04:51:22.921Z,15.57
2018-08-17T04:53:51.782Z,14.17
2018-08-17T04:56:20.674Z,17.43
2018-08-17T04:58:49.568Z,28.37
2018-08-17T05:01:18.470Z,13.83
2018-08-17T05:03:47.774Z,14.67
2018-08-17T05:06:16.588Z,14.80
2018-08-17T05:08:45.702Z,14.77
2018-08-17T05:11:15.069Z,17.40
2018-08-17T05:13:44.482Z,26.00
2018-08-17T05:16:13.382Z,51.50
2018-08-17T05:18:42.877Z,20.60
2018-08-17T05:21:11.717Z,20.70
2018-08-17T05:23:40.441Z,25.60
2018-08-17T05:26:09.653Z,23.07
2018-08-17T05:28:38.410Z,27.63
2018-08-17T05:31:07.608Z,13.47
2018-08-17T05:33:36.415Z,13.20
2018-08-17T05:36:05.349Z,16.03
2018-08-17T05:38:34.126Z,14.27
2018-08-17T05:41:03.014Z,13.63
2018-08-17T05:43:31.845Z,16.17
2018-08-17T05:46:00.628Z,47.87
2018-08-17T05:48:29.525Z,17.50
2018-08-17T05:50:58.321Z,39.33
2018-08-17T05:53:27.289Z,16.03
2018-08-17T05:55:56.179Z,13.43
2018-08-17T05:58:25.132Z,14.37
2018-08-17T06:00:54.048Z,15.13
2018-08-17T06:03:23.019Z,13.43
2018-08-17T06:05:51.876Z,19.60
2018-08-17T06:08:20.777Z,14.40
2018-08-17T06:10:49.869Z,13.87
2018-08-17T06:13:18.995Z,15.70
2018-08-17T06:15:47.949Z,18.03
2018-08-17T06:18:16.911Z,15.33
2018-08-17T06:20:45.771Z,16.63
2018-08-17T06:23:15.518Z,15.93
2018-08-17T06:25:44.370Z,27.47
2018-08-17T06:28:13.272Z,15.97
2018-08-17T06:30:42.198Z,17.40
2018-08-17T06:33:11.041Z,14.53
2018-08-17T06:35:39.875Z,26.50
2018-08-17T06:38:08.680Z,14.87
2018-08-17T06:40:37.462Z,19.97
2018-08-17T06:43:06.370Z,20.03
2018-08-17T06:45:35.151Z,18.53
2018-08-17T06:48:04.022Z,13.57
2018-08-17T06:50:32.906Z,17.43
2018-08-17T06:53:01.671Z,21.40
2018-08-17T06:55:30.495Z,21.43
2018-08-17T06:57:59.330Z,16.93
2018-08-17T07:00:29.155Z,26.83
2018-08-17T07:02:59.055Z,16.57
2018-08-17T07:05:27.905Z,15.50
2018-08-17T07:07:57.411Z,13.30
2018-08-17T07:10:27.243Z,13.30
2018-08-17T07:12:56.110Z,11.40
2018-08-17T07:15:24.958Z,11.23
2018-08-17T07:17:53.829Z,8.83
2018-08-17T07:20:24.671Z,9.37
2018-08-17T07:22:53.631Z,11.63
2018-08-17T07:25:22.651Z,9.60
2018-08-17T07:27:51.692Z,13.50
2018-08-17T07:30:21.483Z,10.00
2018-08-17T07:32:50.360Z,9.97
2018-08-17T07:35:19.325Z,9.50
2018-08-17T07:37:48.200Z,13.00
2018-08-17T07:40:17.070Z,16.20
2018-08-17T07:42:45.958Z,11.80
2018-08-17T07:45:14.766Z,13.77
2018-08-17T07:47:43.664Z,11.97
2018-08-17T07:50:18.763Z,11.47
2018-08-17T07:52:47.698Z,11.27
2018-08-17T07:55:16.612Z,13.37
2018-08-17T07:57:45.383Z,15.63
2018-08-17T08:00:16.159Z,14.03
2018-08-17T08:02:44.961Z,11.30
2018-08-17T08:05:13.792Z,11.03
2018-08-17T08:07:42.947Z,10.37
2018-08-17T08:10:13.106Z,9.20
2018-08-17T08:12:45.932Z,11.10
2018-08-17T08:15:14.692Z,14.90
2018-08-17T08:17:43.550Z,10.67
2018-08-17T08:20:25.323Z,9.23
2018-08-17T08:23:05.070Z,16.23
2018-08-17T08:25:33.890Z,18.70
2018-08-17T08:28:02.620Z,11.20
2018-08-17T08:30:32.565Z,28.87
2018-08-17T08:33:01.726Z,12.63
2018-08-17T08:35:31.006Z,10.90
2018-08-17T08:38:00.071Z,11.60
2018-08-17T08:40:29.323Z,33.33
2018-08-17T08:42:58.262Z,11.17
2018-08-17T08:45:27.113Z,13.83
2018-08-17T08:47:56.292Z,11.20
2018-08-17T08:50:27.511Z,17.67
2018-08-17T08:52:56.530Z,10.13
2018-08-17T08:55:25.454Z,9.40
2018-08-17T08:57:54.474Z,9.30
2018-08-17T09:00:25.027Z,10.60
2018-08-17T09:02:53.782Z,8.63
2018-08-17T09:05:22.899Z,7.97
2018-08-17T09:07:52.003Z,7.77
2018-08-17T09:10:20.798Z,7.30
2018-08-17T09:12:49.822Z,10.77
2018-08-17T09:15:18.571Z,7.53
2018-08-17T09:17:47.412Z,7.33
2018-08-17T09:20:17.178Z,7.60
2018-08-17T09:22:46.054Z,7.70
2018-08-17T09:25:15.037Z,8.40
2018-08-17T09:27:43.824Z,7.80
2018-08-17T09:30:14.188Z,6.93
2018-08-17T09:32:43.255Z,7.13
2018-08-17T09:35:13.518Z,7.10
2018-08-17T09:37:42.598Z,5.90
2018-08-17T09:40:13.542Z,6.20
2018-08-17T09:42:42.398Z,6.07
2018-08-17T09:45:12.984Z,6.07
2018-08-17T09:47:42.158Z,5.10
2018-08-17T09:50:14.567Z,7.50
2018-08-17T09:52:43.878Z,5.87
2018-08-17T09:55:13.387Z,6.93
2018-08-17T09:57:43.254Z,6.93
2018-08-17T10:00:13.997Z,5.30
2018-08-17T10:02:48.438Z,7.13
2018-08-17T10:05:31.574Z,5.10
2018-08-17T10:08:05.649Z,4.63
2018-08-17T10:10:35.693Z,6.83
2018-08-17T10:13:04.877Z,4.53
2018-08-17T10:15:35.662Z,5.60
2018-08-17T10:18:16.310Z,5.07
2018-08-17T10:20:58.649Z,5.67
2018-08-17T10:23:52.773Z,8.60
2018-08-17T10:26:24.809Z,5.57
2018-08-17T10:31:27.839Z,3.97
2018-08-17T10:33:57.356Z,4.83
2018-08-17T10:36:26.949Z,8.67
2018-08-17T10:38:56.107Z,4.43
2018-08-17T10:41:25.103Z,26.37
2018-08-17T10:43:53.927Z,8.93
2018-08-17T10:46:22.655Z,5.60
2018-08-17T10:48:51.708Z,2.53
2018-08-17T10:51:22.680Z,3.40
2018-08-17T10:53:51.539Z,3.00
2018-08-17T10:56:20.794Z,3.97
2018-08-17T10:58:49.698Z,4.30
2018-08-17T11:01:19.713Z,5.53
2018-08-17T11:03:48.508Z,5.50
2018-08-17T11:06:17.989Z,7.63
2018-08-17T11:08:46.793Z,4.87
2018-08-17T11:11:17.810Z,4.37
2018-08-17T11:13:46.634Z,4.73
2018-08-17T11:16:15.555Z,7.37
2018-08-17T11:18:44.786Z,4.70
2018-08-17T11:21:14.974Z,3.73
2018-08-17T11:23:43.803Z,5.70
2018-08-17T11:26:12.827Z,6.90
2018-08-17T11:28:41.862Z,5.23
2018-08-17T11:31:10.938Z,4.57
2018-08-17T11:33:40.115Z,4.20
2018-08-17T11:36:08.946Z,5.03
2018-08-17T11:38:37.923Z,3.50
2018-08-17T11:41:10.946Z,4.37
2018-08-17T11:43:39.677Z,4.90
2018-08-17T11:46:08.725Z,4.70
2018-08-17T11:48:38.404Z,5.90
2018-08-17T11:51:07.464Z,14.30
2018-08-17T11:53:36.239Z,5.40
2018-08-17T11:56:05.117Z,8.50
2018-08-17T11:58:33.943Z,6.50
2018-08-17T12:01:06.974Z,6.77
2018-08-17T12:03:35.797Z,8.47
2018-08-17T12:06:04.706Z,9.00
2018-08-17T12:08:33.615Z,6.87
2018-08-17T12:11:06.587Z,7.17
2018-08-17T12:13:38.559Z,5.80
2018-08-17T12:16:11.235Z,6.40
2018-08-17T12:18:40.181Z,6.63
2018-08-17T12:21:09.100Z,7.03
2018-08-17T12:23:38.085Z,7.20
2018-08-17T12:26:07.087Z,6.07
2018-08-17T12:28:36.179Z,7.13
2018-08-17T12:31:06.475Z,12.47
2018-08-17T12:33:35.313Z,5.93
2018-08-17T12:36:04.477Z,15.93
2018-08-17T12:38:33.459Z,10.40
2018-08-17T12:41:02.253Z,9.77
2018-08-17T12:43:36.839Z,8.63
2018-08-17T12:46:05.735Z,8.57
2018-08-17T12:48:34.630Z,8.00
2018-08-17T12:51:03.686Z,9.73
2018-08-17T12:53:32.778Z,9.57
2018-08-17T12:56:01.632Z,7.00
2018-08-17T12:58:30.579Z,9.53
2018-08-17T13:00:59.402Z,8.30
2018-08-17T13:03:28.160Z,9.00
2018-08-17T13:05:57.006Z,10.83
2018-08-17T13:08:29.504Z,18.73
2018-08-17T13:10:59.827Z,25.23
2018-08-17T13:13:28.752Z,10.03
2018-08-17T13:16:02.957Z,14.20
2018-08-17T13:18:41.795Z,9.73
2018-08-17T13:21:10.587Z,9.23
2018-08-17T13:23:39.774Z,16.90
2018-08-17T13:26:08.670Z,10.20
2018-08-17T13:28:37.583Z,8.00
2018-08-17T13:31:07.391Z,9.13
2018-08-17T13:33:36.218Z,8.80
2018-08-17T13:36:05.200Z,10.37
2018-08-17T13:38:34.131Z,8.70
2018-08-17T13:41:02.931Z,7.80
2018-08-17T13:43:32.868Z,14.00
2018-08-17T13:46:01.761Z,5.40
2018-08-17T13:48:30.663Z,11.60
2018-08-17T13:50:59.589Z,6.90
2018-08-17T13:53:29.526Z,4.50
2018-08-17T13:55:58.472Z,5.50
2018-08-17T13:58:27.306Z,6.60
2018-08-17T14:00:56.058Z,5.03
2018-08-17T14:03:24.929Z,6.90
2018-08-17T14:05:53.665Z,5.63
2018-08-17T14:08:22.614Z,5.80
2018-08-17T14:10:51.458Z,5.93
2018-08-17T14:13:20.443Z,6.43
2018-08-17T14:15:49.326Z,5.90
2018-08-17T14:18:18.141Z,5.83
2018-08-17T14:20:46.968Z,5.70
2018-08-17T14:23:15.842Z,6.20
2018-08-17T14:25:44.614Z,6.03
2018-08-17T14:28:13.419Z,11.80
2018-08-17T14:30:42.282Z,5.10
2018-08-17T14:33:11.222Z,4.43
2018-08-17T14:35:40.031Z,6.00
2018-08-17T14:38:08.947Z,5.70
2018-08-17T14:40:37.776Z,7.57
2018-08-17T14:43:10.078Z,13.13
2018-08-17T14:45:38.934Z,5.20
2018-08-17T14:48:07.850Z,7.30
2018-08-17T14:50:36.680Z,6.30
2018-08-17T14:53:06.595Z,5.07
2018-08-17T14:55:35.390Z,5.97
2018-08-17T14:58:04.192Z,5.80
2018-08-17T15:00:33.747Z,6.65
2018-08-17T15:03:04.672Z,5.22
2018-08-17T15:05:33.429Z,7.30
2018-08-17T15:08:02.192Z,3.95
2018-08-17T15:10:31.043Z,5.15
2018-08-17T15:13:01.055Z,4.35
2018-08-17T15:15:29.956Z,4.95
2018-08-17T15:17:59.728Z,4.78
2018-08-17T15:20:28.548Z,5.47
2018-08-17T15:22:58.406Z,6.37
2018-08-17T15:25:27.328Z,4.87
2018-08-17T15:27:56.222Z,7.12
2018-08-17T15:30:25.111Z,13.55
2018-08-17T15:32:54.000Z,4.40
2018-08-17T15:35:22.813Z,4.85
2018-08-17T15:37:51.676Z,3.83
2018-08-17T15:40:20.618Z,5.58
2018-08-17T15:42:51.480Z,3.70
2018-08-17T15:45:21.186Z,3.73
2018-08-17T15:47:49.954Z,8.90
2018-08-17T15:50:20.144Z,4.07
2018-08-17T15:52:48.889Z,5.13
2018-08-17T15:55:17.692Z,3.27
2018-08-17T15:57:46.575Z,3.23
2018-08-17T16:00:19.324Z,3.10
2018-08-17T16:02:48.229Z,5.53
2018-08-17T16:05:17.286Z,5.90
2018-08-17T16:07:46.199Z,3.70
2018-08-17T16:10:16.183Z,4.43
2018-08-17T16:12:45.683Z,4.67
2018-08-17T16:15:14.623Z,4.57
2018-08-17T16:17:43.704Z,3.87
2018-08-17T16:20:13.353Z,20.30
2018-08-17T16:22:42.973Z,3.73
2018-08-17T16:25:12.811Z,11.40
2018-08-17T16:27:42.619Z,3.47
2018-08-17T16:30:14.030Z,3.60
2018-08-17T16:32:43.057Z,3.10
2018-08-17T16:35:12.553Z,4.50
2018-08-17T16:37:45.492Z,3.63
2018-08-17T16:40:14.503Z,4.23
2018-08-17T16:42:43.411Z,5.13
2018-08-17T16:45:12.389Z,4.37
2018-08-17T16:47:41.447Z,5.10
2018-08-17T16:50:10.387Z,5.23
2018-08-17T16:52:39.262Z,4.23
2018-08-17T16:55:08.178Z,3.23
2018-08-17T16:57:37.334Z,16.80
2018-08-17T17:00:07.588Z,21.73
2018-08-17T17:02:36.490Z,3.23
2018-08-17T17:05:06.590Z,7.80
2018-08-17T17:07:35.415Z,8.93
2018-08-17T17:10:04.690Z,3.90
2018-08-17T17:12:33.479Z,7.30
2018-08-17T17:15:07.950Z,3.97
2018-08-17T17:17:36.689Z,4.13
2018-08-17T17:20:07.009Z,3.77
2018-08-17T17:22:35.859Z,3.07
2018-08-17T17:25:19.959Z,3.50
2018-08-17T17:27:49.898Z,9.30
2018-08-17T17:30:18.796Z,4.40
2018-08-17T17:32:47.512Z,8.20
2018-08-17T17:35:16.317Z,3.90
2018-08-17T17:37:45.190Z,4.40
2018-08-17T17:40:14.109Z,5.70
2018-08-17T17:42:42.967Z,7.40
2018-08-17T17:45:11.795Z,8.80
2018-08-17T17:47:40.592Z,3.83
2018-08-17T17:50:09.572Z,4.40
2018-08-17T17:52:38.307Z,3.43
2018-08-17T17:55:06.962Z,3.80
2018-08-17T17:57:35.788Z,6.83
2018-08-17T18:00:04.912Z,6.87
2018-08-17T18:02:33.842Z,10.17
2018-08-17T18:05:02.692Z,3.43
2018-08-17T18:07:39.627Z,3.50
2018-08-17T18:10:08.623Z,14.43
2018-08-17T18:12:37.480Z,18.23
2018-08-17T18:15:06.571Z,3.93
2018-08-17T18:17:35.484Z,3.90
2018-08-17T18:20:04.455Z,3.60
2018-08-17T18:22:33.468Z,5.70
2018-08-17T18:25:16.969Z,5.63
2018-08-17T18:27:46.110Z,3.53
2018-08-17T18:30:15.151Z,3.10
2018-08-17T18:32:44.063Z,3.43
2018-08-17T18:35:13.035Z,11.63
2018-08-17T18:37:41.943Z,4.10
2018-08-17T18:40:12.118Z,5.50
2018-08-17T18:42:40.966Z,7.60
2018-08-17T18:45:09.962Z,3.00
2018-08-17T18:47:38.756Z,4.40
2018-08-17T18:50:08.144Z,5.40
2018-08-17T18:52:37.117Z,4.53
2018-08-17T18:55:06.061Z,3.20
2018-08-17T18:57:34.894Z,3.43
2018-08-17T19:00:03.839Z,3.03
2018-08-17T19:02:32.816Z,6.10
2018-08-17T19:05:01.583Z,32.40
2018-08-17T19:07:30.442Z,3.30
2018-08-17T19:09:59.384Z,2.40
2018-08-17T19:12:28.190Z,19.33
2018-08-17T19:14:57.010Z,5.73
2018-08-17T19:17:34.103Z,7.10
2018-08-17T19:20:02.852Z,4.30
2018-08-17T19:22:47.268Z,9.43
2018-08-17T19:25:16.899Z,3.00
2018-08-17T19:27:45.758Z,6.30
2018-08-17T19:30:25.926Z,3.23
2018-08-17T19:32:56.304Z,3.33
2018-08-17T19:35:25.208Z,5.80
2018-08-17T19:37:54.238Z,3.20
2018-08-17T19:40:23.441Z,7.43
2018-08-17T19:42:52.301Z,6.53
2018-08-17T19:45:21.452Z,4.23
2018-08-17T19:47:50.584Z,5.20
2018-08-17T19:50:19.438Z,4.10
2018-08-17T19:52:48.308Z,9.57
2018-08-17T19:55:17.243Z,7.20
2018-08-17T19:57:46.062Z,7.90
2018-08-17T20:00:14.986Z,5.87
2018-08-17T20:02:43.914Z,6.73
2018-08-17T20:05:12.717Z,5.87
2018-08-17T20:07:41.697Z,5.50
2018-08-17T20:10:11.821Z,5.83
2018-08-17T20:12:41.022Z,23.50
2018-08-17T20:15:09.844Z,6.90
2018-08-17T20:17:39.064Z,8.30
2018-08-17T20:20:09.758Z,9.93
2018-08-17T20:22:38.709Z,6.83
2018-08-17T20:25:13.108Z,7.57
2018-08-17T20:27:42.012Z,5.23
2018-08-17T20:30:15.923Z,8.67
2018-08-17T20:32:45.180Z,6.13
2018-08-17T20:35:13.931Z,8.37
2018-08-17T20:37:46.924Z,5.27
2018-08-17T20:40:16.111Z,13.50
2018-08-17T20:42:45.290Z,6.23
2018-08-17T20:45:14.067Z,6.57
2018-08-17T20:47:43.528Z,10.50
2018-08-17T20:50:15.745Z,5.63
2018-08-17T20:52:51.595Z,5.90
2018-08-17T20:55:20.760Z,6.80
2018-08-17T20:57:52.524Z,5.03
2018-08-17T21:00:22.167Z,10.33
2018-08-17T21:02:51.090Z,6.47
2018-08-17T21:05:20.174Z,8.70
2018-08-17T21:07:49.780Z,7.43
2018-08-17T21:10:18.777Z,9.30
2018-08-17T21:12:48.145Z,11.23
2018-08-17T21:15:17.310Z,5.00
2018-08-17T21:17:46.288Z,3.67
2018-08-17T21:20:15.042Z,4.50
2018-08-17T21:22:44.023Z,5.93
2018-08-17T21:25:12.800Z,4.67
2018-08-17T21:27:41.606Z,4.17
2018-08-17T21:30:10.727Z,3.73
2018-08-17T21:32:39.581Z,5.40
2018-08-17T21:35:08.719Z,11.50
2018-08-17T21:37:37.980Z,5.50
2018-08-17T21:40:13.709Z,8.77
2018-08-17T21:42:42.732Z,5.07
2018-08-17T21:45:11.589Z,7.63
2018-08-17T21:47:40.538Z,12.03
2018-08-17T21:50:13.745Z,5.50
2018-08-17T21:52:43.477Z,5.10
2018-08-17T21:55:12.375Z,10.87
2018-08-17T21:57:41.334Z,4.83
2018-08-17T22:00:19.879Z,4.50
2018-08-17T22:02:48.965Z,4.63
2018-08-17T22:05:27.943Z,4.73
2018-08-17T22:07:56.690Z,3.93
2018-08-17T22:10:25.488Z,4.90
2018-08-17T22:12:54.407Z,6.23
2018-08-17T22:15:25.783Z,7.00
2018-08-17T22:17:54.741Z,4.77
2018-08-17T22:20:23.505Z,15.60
2018-08-17T22:22:52.350Z,4.33
2018-08-17T22:25:21.175Z,9.53
2018-08-17T22:27:50.354Z,4.47
2018-08-17T22:30:21.330Z,4.70
2018-08-17T22:32:50.218Z,10.10
2018-08-17T22:35:19.221Z,5.50
2018-08-17T22:37:47.938Z,3.40
2018-08-17T22:40:16.770Z,4.03
2018-08-17T22:42:47.832Z,3.67
2018-08-17T22:45:16.806Z,4.57
2018-08-17T22:47:45.876Z,3.40
2018-08-17T22:50:14.757Z,5.00
2018-08-17T22:52:43.534Z,3.93
2018-08-17T22:55:12.400Z,4.70
2018-08-17T22:57:41.197Z,8.17
2018-08-17T23:00:20.447Z,5.53
2018-08-17T23:02:50.490Z,4.27
2018-08-17T23:05:21.604Z,6.00
2018-08-17T23:07:50.474Z,4.23
2018-08-17T23:10:21.389Z,5.33
2018-08-17T23:12:51.136Z,8.00
2018-08-17T23:15:20.216Z,10.20
2018-08-17T23:17:56.232Z,6.03
2018-08-17T23:20:30.189Z,5.40
2018-08-17T23:23:00.279Z,6.40
2018-08-17T23:25:29.336Z,5.10
2018-08-17T23:27:58.251Z,20.60
2018-08-17T23:30:27.186Z,5.87
2018-08-17T23:32:55.957Z,6.00
2018-08-17T23:35:24.810Z,16.37
2018-08-17T23:37:53.603Z,6.00
2018-08-17T23:40:22.509Z,10.33
2018-08-17T23:42:51.383Z,6.57
2018-08-17T23:45:20.321Z,7.23
2018-08-17T23:47:49.014Z,11.43
2018-08-17T23:50:18.221Z,8.13
2018-08-17T23:52:47.142Z,11.30
2018-08-17T23:55:17.572Z,7.93
2018-08-17T23:57:46.358Z,15.73
